Terminal Aerodrome Forecast
Issued by NWS

Home | Current Version | Previous Version | Text Only | Print | Product List | Glossary On
Versions: 1 2 3 4 5 6 7 8 9 10 11 12 13 14 15
304
FTUS43 KAPX 221120
TAFTVC
TAF
KTVC 221120Z 2212/2312 16006KT P6SM BKN070 WS018/22040KT
     FM221500 18012G20KT P6SM BKN050
     FM221800 19008G16KT P6SM -SHRA OVC035
     FM222100 25010KT 3SM -SHRA OVC020
     FM222300 28007KT 3SM -SHRA OVC015
     FM230300 29004KT 3SM -SHRA BR OVC010
     FM230800 VRB03KT P6SM OVC015=

USA.gov is the U.S. government's official web portal to all federal, state and local government web resources and services.